Time;durP1;ratioP1;P1;durP2;ratioP2;P2;SDS_P1;SDS_P2;PMS_P1;PMS_P2;Temp;Humidity;BMP_temperature;BMP_pressure;BME280_temperature;BME280_humidity;BME280_pressure;Samples;Min_cycle;Max_cycle;Signal;HPM_P1;HPM_P2
2022/09/14 00:01:42;;;;;;;3.40;3.10;;;22.80;99.90;;;;;;4153706;28;20250;-75
2022/09/14 00:03:45;;;;;;;4.57;3.20;;;22.80;99.90;;;;;;4162265;28;20274;-76
2022/09/14 00:05:47;;;;;;;4.40;3.33;;;22.80;99.90;;;;;;4160472;28;20317;-75
2022/09/14 00:07:49;;;;;;;5.75;3.10;;;22.80;99.90;;;;;;4162482;28;20274;-75
2022/09/14 00:09:52;;;;;;;4.22;2.95;;;22.80;99.90;;;;;;4155192;28;20585;-76
2022/09/14 00:11:54;;;;;;;3.53;3.13;;;22.80;99.90;;;;;;4162437;28;20232;-75
2022/09/14 00:13:57;;;;;;;4.28;3.03;;;22.80;99.90;;;;;;4160878;28;20228;-75
2022/09/14 00:16:05;;;;;;;3.03;2.50;;;22.80;99.90;;;;;;4160191;28;20714;-76
2022/09/14 00:18:10;;;;;;;3.90;3.22;;;22.80;99.90;;;;;;4156702;28;20772;-75
2022/09/14 00:20:12;;;;;;;5.05;3.03;;;22.80;99.90;;;;;;4152328;28;20347;-76
2022/09/14 00:22:15;;;;;;;3.08;2.60;;;22.80;99.90;;;;;;4151040;28;20626;-76
2022/09/14 00:24:17;;;;;;;4.13;3.10;;;22.80;99.90;;;;;;4160804;28;20660;-76
2022/09/14 00:26:21;;;;;;;4.22;3.03;;;22.70;99.90;;;;;;4157754;28;20270;-75
2022/09/14 00:28:24;;;;;;;4.07;3.17;;;22.70;99.90;;;;;;4162341;28;20326;-75
2022/09/14 00:30:26;;;;;;;2.92;2.63;;;22.70;99.90;;;;;;4161608;28;20224;-76
2022/09/14 00:32:30;;;;;;;4.05;3.00;;;22.70;99.90;;;;;;4158313;28;20220;-75
2022/09/14 00:34:33;;;;;;;3.10;2.80;;;22.80;99.90;;;;;;4161605;28;20228;-75
2022/09/14 00:36:39;;;;;;;3.13;2.70;;;22.70;99.90;;;;;;4158212;28;20319;-75
2022/09/14 00:38:42;;;;;;;4.10;3.00;;;22.80;99.90;;;;;;4162289;28;20224;-75
2022/09/14 00:40:44;;;;;;;3.20;2.70;;;22.70;99.90;;;;;;4158056;28;20229;-75
2022/09/14 00:42:46;;;;;;;3.40;2.65;;;22.70;99.90;;;;;;4155529;28;20267;-75
2022/09/14 00:45:00;;;;;;;4.05;2.95;;;22.70;99.90;;;;;;4154172;28;20225;-75
2022/09/14 00:47:02;;;;;;;3.83;2.95;;;22.70;99.90;;;;;;4156161;28;20224;-76
2022/09/14 00:49:10;;;;;;;3.85;2.80;;;22.70;99.90;;;;;;4152037;28;20217;-76
2022/09/14 00:51:13;;;;;;;3.42;3.05;;;22.70;99.90;;;;;;4152990;28;20688;-75
2022/09/14 00:53:16;;;;;;;3.90;2.70;;;22.70;99.90;;;;;;4162335;28;20220;-75
2022/09/14 00:55:21;;;;;;;3.03;2.70;;;22.70;99.90;;;;;;4160134;28;20284;-75
2022/09/14 00:57:24;;;;;;;3.13;2.78;;;22.70;99.90;;;;;;4159744;28;20243;-75
2022/09/14 00:59:29;;;;;;;2.80;2.60;;;22.70;99.90;;;;;;4166758;28;20676;-75
2022/09/14 01:01:32;;;;;;;3.97;3.03;;;22.70;99.90;;;;;;4163071;28;20220;-76
2022/09/14 01:03:34;;;;;;;3.45;2.90;;;22.70;99.90;;;;;;4172173;28;20294;-75
2022/09/14 01:05:52;;;;;;;3.35;2.65;;;22.70;99.90;;;;;;4159797;28;20248;-75
2022/09/14 01:08:21;;;;;;;3.17;2.75;;;22.70;99.90;;;;;;4155067;28;20224;-75
2022/09/14 01:10:33;;;;;;;2.95;2.55;;;22.70;99.90;;;;;;4167387;28;20265;-75
2022/09/14 01:12:44;;;;;;;3.83;3.08;;;22.70;99.90;;;;;;4164994;28;20232;-75
2022/09/14 01:14:54;;;;;;;3.08;2.53;;;22.70;99.90;;;;;;4162544;28;20266;-76
2022/09/14 01:17:03;;;;;;;3.03;2.40;;;22.70;99.90;;;;;;4164014;28;20244;-75
2022/09/14 01:19:10;;;;;;;3.90;2.90;;;22.70;99.90;;;;;;4153643;28;20217;-76
2022/09/14 01:21:18;;;;;;;5.55;3.08;;;22.70;99.90;;;;;;4168793;28;20212;-75
2022/09/14 01:23:27;;;;;;;5.05;2.90;;;22.70;99.90;;;;;;4164371;28;20341;-75
2022/09/14 01:25:50;;;;;;;2.90;2.60;;;22.70;99.90;;;;;;4161479;28;20720;-75
2022/09/14 01:27:56;;;;;;;2.88;2.50;;;22.70;99.90;;;;;;4139548;28;20506;-75
2022/09/14 01:30:06;;;;;;;3.83;2.35;;;22.60;99.90;;;;;;4168231;28;20626;-75
2022/09/14 01:32:13;;;;;;;3.35;2.80;;;22.70;99.90;;;;;;4163945;28;20219;-75
2022/09/14 01:34:22;;;;;;;3.13;2.65;;;22.70;99.90;;;;;;4166400;28;20212;-76
2022/09/14 01:36:27;;;;;;;3.05;2.78;;;22.60;99.90;;;;;;4174250;28;20224;-76
2022/09/14 01:38:33;;;;;;;2.65;2.40;;;22.70;99.90;;;;;;4168612;28;20220;-75
2022/09/14 01:40:39;;;;;;;3.63;2.63;;;22.60;99.90;;;;;;4152358;28;20259;-75
2022/09/14 01:42:46;;;;;;;2.67;2.42;;;22.70;99.90;;;;;;4162200;28;20221;-75
2022/09/14 01:44:55;;;;;;;2.78;2.53;;;22.70;99.90;;;;;;4152085;28;20225;-75
2022/09/14 01:47:05;;;;;;;5.10;2.35;;;22.70;99.90;;;;;;4153371;28;20682;-75
2022/09/14 01:49:13;;;;;;;3.53;2.65;;;22.60;99.90;;;;;;4162155;28;20614;-75
2022/09/14 01:51:19;;;;;;;2.65;2.45;;;22.70;99.90;;;;;;4161162;28;20274;-75
2022/09/14 01:53:26;;;;;;;2.53;2.33;;;22.70;99.90;;;;;;4154928;28;20229;-75
2022/09/14 01:55:31;;;;;;;3.78;2.33;;;22.70;99.90;;;;;;4156470;28;20304;-75
2022/09/14 01:57:38;;;;;;;2.97;2.25;;;22.60;99.90;;;;;;4152302;28;20290;-75
2022/09/14 01:59:44;;;;;;;2.58;2.38;;;22.60;99.90;;;;;;4160850;28;20221;-75
2022/09/14 02:01:53;;;;;;;3.28;2.53;;;22.60;99.90;;;;;;4155509;28;20229;-75
2022/09/14 02:04:02;;;;;;;2.75;2.40;;;22.60;99.90;;;;;;4153254;28;20266;-75
2022/09/14 02:06:09;;;;;;;2.92;2.30;;;22.60;99.90;;;;;;4154475;28;20286;-76
2022/09/14 02:08:11;;;;;;;3.38;2.47;;;22.60;99.90;;;;;;4159141;28;20267;-76
2022/09/14 02:10:16;;;;;;;2.50;2.22;;;22.60;99.90;;;;;;4155919;28;20224;-75
2022/09/14 02:12:18;;;;;;;3.22;2.70;;;22.60;99.90;;;;;;4153044;28;20302;-76
2022/09/14 02:14:21;;;;;;;2.90;2.60;;;22.60;99.90;;;;;;4156141;28;20274;-75
2022/09/14 02:16:24;;;;;;;3.70;2.67;;;22.60;99.90;;;;;;4151624;28;20213;-75
2022/09/14 02:18:28;;;;;;;3.67;2.72;;;22.60;99.90;;;;;;4152105;28;20244;-75
2022/09/14 02:20:34;;;;;;;2.95;2.33;;;22.60;99.90;;;;;;4164396;28;20727;-75
2022/09/14 02:22:36;;;;;;;3.55;2.38;;;22.60;99.90;;;;;;4157046;28;20205;-75
2022/09/14 02:24:39;;;;;;;2.63;2.42;;;22.60;99.90;;;;;;4155281;28;20334;-74
2022/09/14 02:26:42;;;;;;;3.08;2.60;;;22.60;99.90;;;;;;4170737;28;20646;-74
2022/09/14 02:28:45;;;;;;;2.42;2.08;;;22.60;99.90;;;;;;4166252;28;20220;-74
2022/09/14 02:30:54;;;;;;;3.20;2.70;;;22.60;99.90;;;;;;4165481;28;20468;-75
2022/09/14 02:33:07;;;;;;;2.95;2.35;;;22.60;99.90;;;;;;4164444;28;20883;-75
2022/09/14 02:35:20;;;;;;;5.05;2.33;;;22.60;99.90;;;;;;4164351;28;20270;-75
2022/09/14 02:37:43;;;;;;;4.90;2.40;;;22.60;99.90;;;;;;4161623;28;20298;-75
2022/09/14 02:39:51;;;;;;;3.95;2.67;;;22.60;99.90;;;;;;4161015;28;20271;-75
2022/09/14 02:42:03;;;;;;;2.65;2.28;;;22.60;99.90;;;;;;4160376;28;20212;-75
2022/09/14 02:44:12;;;;;;;2.17;2.05;;;22.60;99.90;;;;;;4161461;28;20613;-74
2022/09/14 02:46:19;;;;;;;3.40;2.38;;;22.60;99.90;;;;;;4161409;28;21126;-75
2022/09/14 02:48:38;;;;;;;2.60;2.40;;;22.60;99.90;;;;;;4158556;28;20271;-76
2022/09/14 02:50:49;;;;;;;2.95;2.47;;;22.60;99.90;;;;;;4160713;28;20204;-75
2022/09/14 02:52:59;;;;;;;3.33;2.30;;;22.50;99.90;;;;;;4160352;28;20220;-75
2022/09/14 02:55:08;;;;;;;3.17;2.40;;;22.60;99.90;;;;;;4159815;28;20220;-75
2022/09/14 02:57:11;;;;;;;2.60;2.38;;;22.50;99.90;;;;;;4157922;28;20228;-76
2022/09/14 02:59:13;;;;;;;2.78;2.20;;;22.60;99.90;;;;;;4160353;28;20275;-76
2022/09/14 03:01:18;;;;;;;3.17;2.75;;;22.60;99.90;;;;;;4160360;28;20282;-75
2022/09/14 03:03:21;;;;;;;3.70;2.30;;;22.60;99.90;;;;;;4161192;28;20673;-75
2022/09/14 03:05:24;;;;;;;2.38;2.00;;;22.60;99.90;;;;;;4151656;28;20232;-75
2022/09/14 03:07:27;;;;;;;3.83;2.40;;;22.60;99.90;;;;;;4147432;28;20732;-76
2022/09/14 03:09:30;;;;;;;2.83;2.22;;;22.50;99.90;;;;;;4147746;28;20228;-75
2022/09/14 03:11:32;;;;;;;3.55;2.20;;;22.60;99.90;;;;;;4146893;28;20224;-75
2022/09/14 03:13:35;;;;;;;3.63;2.45;;;22.60;99.90;;;;;;4150746;28;20271;-75
2022/09/14 03:15:37;;;;;;;2.67;2.10;;;22.50;99.90;;;;;;4150585;28;20209;-76
2022/09/14 03:17:39;;;;;;;3.63;2.25;;;22.60;99.90;;;;;;4147229;28;20658;-75
2022/09/14 03:19:42;;;;;;;3.97;2.20;;;22.60;99.90;;;;;;4146508;28;20278;-76
2022/09/14 03:21:44;;;;;;;3.08;2.00;;;22.50;99.90;;;;;;4144368;28;20263;-75
2022/09/14 03:23:51;;;;;;;2.58;2.35;;;22.50;99.90;;;;;;4149565;28;20217;-75
2022/09/14 03:25:53;;;;;;;3.00;2.40;;;22.50;99.90;;;;;;4154394;28;20287;-75
2022/09/14 03:27:57;;;;;;;3.08;2.08;;;22.50;99.90;;;;;;4146859;28;20725;-75
2022/09/14 03:29:59;;;;;;;2.50;2.00;;;22.60;99.90;;;;;;4149597;28;20977;-75
2022/09/14 03:32:02;;;;;;;2.72;2.20;;;22.50;99.90;;;;;;4146789;28;20627;-76
2022/09/14 03:34:04;;;;;;;3.35;2.17;;;22.50;99.90;;;;;;4146754;28;20229;-75
2022/09/14 03:36:11;;;;;;;2.35;1.83;;;22.50;99.90;;;;;;4147381;28;20589;-75
2022/09/14 03:38:13;;;;;;;3.20;2.25;;;22.50;99.90;;;;;;4150433;28;20240;-76
2022/09/14 03:40:17;;;;;;;3.38;2.42;;;22.50;99.90;;;;;;4148167;28;20267;-75
2022/09/14 03:42:22;;;;;;;2.90;2.28;;;22.50;99.90;;;;;;4147513;28;20221;-76
2022/09/14 03:44:25;;;;;;;2.40;2.00;;;22.50;99.90;;;;;;4147778;28;20217;-75
2022/09/14 03:46:27;;;;;;;2.42;2.10;;;22.50;99.90;;;;;;4149285;28;20217;-75
2022/09/14 03:48:30;;;;;;;3.20;2.13;;;22.50;99.90;;;;;;4148053;28;20728;-75
2022/09/14 03:50:32;;;;;;;2.72;2.30;;;22.50;99.90;;;;;;4146282;28;20225;-75
2022/09/14 03:52:35;;;;;;;3.28;2.17;;;22.50;99.90;;;;;;4146400;28;20224;-76
2022/09/14 03:54:38;;;;;;;2.45;1.90;;;22.50;99.90;;;;;;4148272;28;20295;-75
2022/09/14 03:56:41;;;;;;;2.78;2.00;;;22.50;99.90;;;;;;4145984;28;20225;-75
2022/09/14 03:58:45;;;;;;;1.80;1.70;;;22.50;99.90;;;;;;4147623;28;20240;-75
2022/09/14 04:00:47;;;;;;;2.25;2.00;;;22.50;99.90;;;;;;4147364;28;20613;-75
2022/09/14 04:02:49;;;;;;;2.85;2.35;;;22.50;99.90;;;;;;4150909;28;20759;-75
2022/09/14 04:04:52;;;;;;;4.13;2.13;;;22.50;99.90;;;;;;4154236;28;20221;-75
2022/09/14 04:06:54;;;;;;;2.88;1.73;;;22.50;99.90;;;;;;4162715;28;20220;-75
2022/09/14 04:08:58;;;;;;;2.47;2.17;;;22.50;99.90;;;;;;4162429;28;20224;-75
2022/09/14 04:11:00;;;;;;;2.85;2.10;;;22.50;99.90;;;;;;4162325;28;20584;-75
2022/09/14 04:13:04;;;;;;;2.70;2.28;;;22.50;99.90;;;;;;4161225;28;20279;-75
2022/09/14 04:15:07;;;;;;;3.53;2.47;;;22.50;99.90;;;;;;4162352;28;20228;-75
2022/09/14 04:17:09;;;;;;;2.13;1.73;;;22.50;99.90;;;;;;4162027;28;20228;-75
2022/09/14 04:19:12;;;;;;;2.97;2.22;;;22.50;99.90;;;;;;4162604;28;20240;-75
2022/09/14 04:21:17;;;;;;;2.50;2.03;;;22.50;99.90;;;;;;4162674;28;20223;-75
2022/09/14 04:23:20;;;;;;;3.67;2.30;;;22.50;99.90;;;;;;4162567;28;20212;-76
2022/09/14 04:25:22;;;;;;;3.78;2.20;;;22.50;99.90;;;;;;4163439;28;20228;-75
2022/09/14 04:27:25;;;;;;;2.33;1.95;;;22.50;99.90;;;;;;4162987;28;20229;-75
2022/09/14 04:29:29;;;;;;;5.13;2.20;;;22.50;99.90;;;;;;4161556;28;20228;-75
2022/09/14 04:31:32;;;;;;;3.70;2.22;;;22.50;99.90;;;;;;4164446;28;20219;-75
2022/09/14 04:33:36;;;;;;;3.63;2.30;;;22.50;99.90;;;;;;4164258;28;21199;-75
2022/09/14 04:35:38;;;;;;;3.45;2.13;;;22.50;99.90;;;;;;4166726;28;20265;-75
2022/09/14 04:37:40;;;;;;;2.33;2.03;;;22.50;99.90;;;;;;4164025;28;20232;-75
2022/09/14 04:39:42;;;;;;;4.35;2.40;;;22.40;99.90;;;;;;4163524;28;20236;-75
2022/09/14 04:41:45;;;;;;;2.55;2.00;;;22.50;99.90;;;;;;4163026;28;20228;-75
2022/09/14 04:43:49;;;;;;;3.80;2.05;;;22.50;99.90;;;;;;4162702;28;20704;-75
2022/09/14 04:45:53;;;;;;;2.13;1.88;;;22.50;99.90;;;;;;4158873;28;20224;-75
2022/09/14 04:47:55;;;;;;;3.13;2.08;;;22.40;99.90;;;;;;4162688;28;20221;-76
2022/09/14 04:49:57;;;;;;;2.75;1.98;;;22.40;99.90;;;;;;4162121;28;20220;-76
2022/09/14 04:52:00;;;;;;;3.15;2.10;;;22.50;99.90;;;;;;4164012;28;20669;-75
2022/09/14 04:54:04;;;;;;;3.17;2.05;;;22.40;99.90;;;;;;4162019;28;20635;-75
2022/09/14 04:56:08;;;;;;;2.58;2.05;;;22.40;99.90;;;;;;4160616;28;20623;-75
2022/09/14 04:58:10;;;;;;;3.30;2.13;;;22.50;99.90;;;;;;4162358;28;20270;-75
2022/09/14 05:00:14;;;;;;;3.47;2.10;;;22.40;99.90;;;;;;4160963;28;20294;-75
2022/09/14 05:02:17;;;;;;;2.33;2.03;;;22.40;99.90;;;;;;4162469;28;20282;-75
2022/09/14 05:04:19;;;;;;;2.70;2.10;;;22.40;99.90;;;;;;4158738;28;20631;-76
2022/09/14 05:06:24;;;;;;;3.03;2.15;;;22.40;99.90;;;;;;4146504;28;20244;-75
2022/09/14 05:08:26;;;;;;;3.13;1.90;;;22.40;99.90;;;;;;4144866;28;20221;-75
2022/09/14 05:10:28;;;;;;;2.60;1.90;;;22.40;99.90;;;;;;4144688;28;20279;-75
2022/09/14 05:12:30;;;;;;;2.65;2.38;;;22.40;99.90;;;;;;4145096;28;20217;-75
2022/09/14 05:14:33;;;;;;;3.08;2.38;;;22.40;99.90;;;;;;4145181;28;20565;-75
2022/09/14 05:16:37;;;;;;;2.40;1.88;;;22.40;99.90;;;;;;4145046;28;20233;-75
2022/09/14 05:18:40;;;;;;;2.60;2.00;;;22.40;99.90;;;;;;4144241;28;20229;-75
2022/09/14 05:20:43;;;;;;;4.63;1.95;;;22.40;99.90;;;;;;4144417;28;20229;-75
2022/09/14 05:22:49;;;;;;;2.13;1.92;;;22.40;99.90;;;;;;4144521;28;20275;-75
2022/09/14 05:24:52;;;;;;;3.50;2.00;;;22.40;99.90;;;;;;4145402;28;20217;-75
2022/09/14 05:26:54;;;;;;;3.17;2.05;;;22.40;99.90;;;;;;4144375;28;20237;-75
2022/09/14 05:28:59;;;;;;;2.47;1.90;;;22.40;99.90;;;;;;4145191;28;20678;-75
2022/09/14 05:31:04;;;;;;;2.80;2.25;;;22.40;99.90;;;;;;4145264;28;20233;-75
2022/09/14 05:33:07;;;;;;;3.33;2.03;;;22.40;99.90;;;;;;4146402;28;20225;-75
2022/09/14 05:35:11;;;;;;;2.80;2.10;;;22.40;99.90;;;;;;4142301;28;20225;-75
2022/09/14 05:37:13;;;;;;;3.25;1.90;;;22.40;99.90;;;;;;4141768;28;20221;-75
2022/09/14 05:39:15;;;;;;;3.47;1.92;;;22.40;99.90;;;;;;4146223;28;20300;-75
2022/09/14 05:41:18;;;;;;;2.05;1.83;;;22.40;99.90;;;;;;4144590;28;20213;-75
2022/09/14 05:43:21;;;;;;;3.28;2.17;;;22.40;99.90;;;;;;4145702;28;20308;-76
2022/09/14 05:45:23;;;;;;;2.20;1.90;;;22.40;99.90;;;;;;4146049;28;20261;-76
2022/09/14 05:47:26;;;;;;;2.35;2.00;;;22.40;99.90;;;;;;4143703;28;20275;-75
2022/09/14 05:49:29;;;;;;;2.20;1.90;;;22.40;99.90;;;;;;4143470;28;20271;-75
2022/09/14 05:51:32;;;;;;;3.17;1.92;;;22.40;99.90;;;;;;4144793;28;20220;-75
2022/09/14 05:53:35;;;;;;;2.92;2.10;;;22.40;99.90;;;;;;4143779;28;20276;-75
2022/09/14 05:55:37;;;;;;;2.60;1.80;;;22.40;99.90;;;;;;4145203;28;20233;-76
2022/09/14 05:57:40;;;;;;;2.33;1.90;;;22.40;99.90;;;;;;4143988;28;20221;-75
2022/09/14 05:59:42;;;;;;;2.75;1.98;;;22.40;99.90;;;;;;4145200;28;20240;-75
2022/09/14 06:01:45;;;;;;;2.42;1.92;;;22.40;99.90;;;;;;4152027;28;20260;-74
2022/09/14 06:03:49;;;;;;;2.90;2.10;;;22.40;99.90;;;;;;4148858;28;20709;-75
2022/09/14 06:05:53;;;;;;;2.17;1.95;;;22.40;99.90;;;;;;4153260;28;20294;-75
2022/09/14 06:07:57;;;;;;;3.60;2.10;;;22.40;99.90;;;;;;4145671;28;20213;-75
2022/09/14 06:09:59;;;;;;;3.03;1.75;;;22.40;99.90;;;;;;4151969;28;20263;-75
2022/09/14 06:12:02;;;;;;;3.72;1.98;;;22.40;99.90;;;;;;4147986;28;20279;-75
2022/09/14 06:14:05;;;;;;;2.88;2.05;;;22.40;99.90;;;;;;4160206;28;20282;-76
2022/09/14 06:16:09;;;;;;;2.08;1.90;;;22.40;99.90;;;;;;4158267;28;20221;-75
2022/09/14 06:18:11;;;;;;;2.33;1.80;;;22.40;99.90;;;;;;4155589;28;20224;-75
2022/09/14 06:20:14;;;;;;;2.15;1.70;;;22.40;99.90;;;;;;4161756;28;20321;-75
2022/09/14 06:22:16;;;;;;;3.40;1.77;;;22.40;99.90;;;;;;4158849;28;20677;-75
2022/09/14 06:24:20;;;;;;;3.33;1.90;;;22.40;99.90;;;;;;4157099;28;20274;-76
2022/09/14 06:26:22;;;;;;;2.47;1.73;;;22.40;99.90;;;;;;4155441;28;20232;-75
2022/09/14 06:28:25;;;;;;;2.88;2.00;;;22.30;99.90;;;;;;4158957;28;20261;-75
2022/09/14 06:30:27;;;;;;;3.28;2.22;;;22.40;99.90;;;;;;4157895;28;20243;-75
2022/09/14 06:32:30;;;;;;;2.88;1.83;;;22.30;99.90;;;;;;4161200;28;20212;-75
2022/09/14 06:34:33;;;;;;;3.55;1.98;;;22.40;99.90;;;;;;4153261;28;20225;-75
2022/09/14 06:36:36;;;;;;;2.95;2.00;;;22.40;99.90;;;;;;4152917;28;20279;-75
2022/09/14 06:38:39;;;;;;;2.17;1.98;;;22.30;99.90;;;;;;4159062;28;20221;-76
2022/09/14 06:40:53;;;;;;;2.20;1.70;;;22.40;99.90;;;;;;4155298;28;20296;-75
2022/09/14 06:42:57;;;;;;;2.47;2.00;;;22.40;99.90;;;;;;4153713;28;20224;-75
2022/09/14 06:44:59;;;;;;;3.17;2.05;;;22.30;99.90;;;;;;4151760;28;20268;-75
2022/09/14 06:47:01;;;;;;;2.25;1.92;;;22.40;99.90;;;;;;4157030;28;20291;-75
2022/09/14 06:49:06;;;;;;;2.67;2.10;;;22.30;99.90;;;;;;4153865;28;20628;-75
2022/09/14 06:51:14;;;;;;;2.45;1.90;;;22.40;99.90;;;;;;4164364;28;20258;-76
2022/09/14 06:53:16;;;;;;;2.60;1.90;;;22.40;99.90;;;;;;4151420;28;20228;-76
2022/09/14 06:55:18;;;;;;;2.88;1.85;;;22.40;99.90;;;;;;4160490;28;20685;-75
2022/09/14 06:57:22;;;;;;;5.28;4.78;;;22.30;99.90;;;;;;4158561;28;20274;-75
2022/09/14 06:59:24;;;;;;;9.85;7.30;;;22.30;99.90;;;;;;4155299;28;20224;-75
2022/09/14 07:01:28;;;;;;;9.65;8.25;;;22.00;99.90;;;;;;4152783;28;20270;-76
2022/09/14 07:03:31;;;;;;;12.77;9.23;;;21.80;99.90;;;;;;4160297;28;20722;-76
2022/09/14 07:05:34;;;;;;;11.52;9.15;;;21.60;99.90;;;;;;4156023;28;20229;-76
2022/09/14 07:07:36;;;;;;;11.07;9.25;;;21.60;99.90;;;;;;4162102;28;20225;-76
2022/09/14 07:09:41;;;;;;;11.15;10.05;;;21.50;99.90;;;;;;4159579;28;20259;-75
2022/09/14 07:11:43;;;;;;;11.35;10.20;;;21.40;99.90;;;;;;4154734;28;20212;-75
2022/09/14 07:13:47;;;;;;;11.80;10.48;;;21.40;99.90;;;;;;4162649;28;20262;-77
2022/09/14 07:15:50;;;;;;;13.20;10.85;;;21.20;99.90;;;;;;4162801;28;20676;-77
2022/09/14 07:17:52;;;;;;;13.05;11.65;;;21.20;99.90;;;;;;4158203;28;20279;-76
2022/09/14 07:19:55;;;;;;;12.65;11.40;;;21.20;99.90;;;;;;4159189;28;20216;-76
2022/09/14 07:21:57;;;;;;;12.73;11.52;;;21.10;99.90;;;;;;4160722;28;20220;-77
2022/09/14 07:24:00;;;;;;;13.02;11.82;;;21.10;99.90;;;;;;4162457;28;20269;-76
2022/09/14 07:26:06;;;;;;;13.70;12.32;;;21.10;99.90;;;;;;4161541;28;20712;-76
2022/09/14 07:28:09;;;;;;;13.20;11.93;;;21.00;99.90;;;;;;4160153;28;20747;-76
2022/09/14 07:30:13;;;;;;;12.98;11.68;;;21.00;99.90;;;;;;4159118;28;20220;-75
2022/09/14 07:32:15;;;;;;;13.65;12.25;;;21.00;99.90;;;;;;4154339;28;20225;-76
2022/09/14 07:34:17;;;;;;;13.77;12.48;;;21.00;99.90;;;;;;4161179;28;20228;-76
2022/09/14 07:36:20;;;;;;;13.38;12.00;;;21.00;99.90;;;;;;4160530;28;20221;-76
2022/09/14 07:38:22;;;;;;;12.70;11.55;;;20.90;99.90;;;;;;4159628;28;20330;-76
2022/09/14 07:40:25;;;;;;;14.10;11.40;;;21.00;99.90;;;;;;4156550;28;20294;-76
2022/09/14 07:42:28;;;;;;;13.10;11.48;;;20.90;99.90;;;;;;4158174;28;20265;-76
2022/09/14 07:44:30;;;;;;;12.02;10.80;;;20.90;99.90;;;;;;4158034;28;20250;-77
2022/09/14 07:46:40;;;;;;;13.90;9.60;;;20.80;99.90;;;;;;4154212;28;21264;-77
2022/09/14 07:48:43;;;;;;;12.02;9.18;;;20.80;99.90;;;;;;4158146;28;20738;-76
2022/09/14 07:50:45;;;;;;;8.27;7.47;;;21.00;99.90;;;;;;4160925;28;20208;-75
2022/09/14 07:52:50;;;;;;;6.32;5.57;;;21.20;99.90;;;;;;4179696;28;20212;-75
2022/09/14 07:54:52;;;;;;;5.97;5.38;;;21.40;99.90;;;;;;4176961;28;20399;-76
2022/09/14 07:56:54;;;;;;;6.10;5.40;;;21.60;99.90;;;;;;4177842;28;20269;-77
2022/09/14 07:58:59;;;;;;;5.65;4.32;;;21.70;99.90;;;;;;4171505;28;20271;-77
2022/09/14 08:01:04;;;;;;;6.75;4.93;;;21.80;99.90;;;;;;4179027;28;20277;-77
2022/09/14 08:03:08;;;;;;;6.85;4.13;;;21.90;99.90;;;;;;4178219;28;20212;-77
2022/09/14 08:05:11;;;;;;;5.10;3.85;;;22.00;99.90;;;;;;4179415;28;20228;-76
2022/09/14 08:07:14;;;;;;;5.63;3.63;;;22.10;99.90;;;;;;4179999;28;20232;-76
2022/09/14 08:09:16;;;;;;;5.45;3.55;;;22.10;99.90;;;;;;4169569;28;20285;-75
2022/09/14 08:11:20;;;;;;;7.10;3.30;;;22.10;99.90;;;;;;4168426;28;20213;-74
2022/09/14 08:13:23;;;;;;;8.35;3.38;;;22.20;99.90;;;;;;4167322;28;20211;-73
2022/09/14 08:15:26;;;;;;;5.95;2.97;;;22.20;99.90;;;;;;4170531;28;20276;-73
2022/09/14 08:17:29;;;;;;;4.40;2.90;;;22.40;99.90;;;;;;4172004;28;20220;-73
2022/09/14 08:19:34;;;;;;;5.57;2.90;;;22.40;99.90;;;;;;4173886;28;20208;-74
2022/09/14 08:21:36;;;;;;;5.60;3.15;;;22.50;99.90;;;;;;4175412;28;20239;-74
2022/09/14 08:23:40;;;;;;;4.68;2.63;;;22.50;99.90;;;;;;4173709;28;20254;-74
2022/09/14 08:25:42;;;;;;;6.88;2.60;;;22.50;99.90;;;;;;4158720;28;20228;-74
2022/09/14 08:27:44;;;;;;;2.90;2.70;;;22.60;99.90;;;;;;4168042;28;20665;-74
2022/09/14 08:29:47;;;;;;;6.22;2.67;;;22.60;99.90;;;;;;4174186;28;20291;-73
2022/09/14 08:31:50;;;;;;;5.05;2.50;;;22.60;99.90;;;;;;4169954;28;20266;-73
2022/09/14 08:33:55;;;;;;;5.03;2.70;;;22.60;99.90;;;;;;4174825;28;20266;-74
2022/09/14 08:35:58;;;;;;;3.88;2.60;;;22.70;99.90;;;;;;4171575;28;20207;-72
2022/09/14 08:38:01;;;;;;;3.88;2.35;;;22.70;99.90;;;;;;4174804;28;20219;-73
2022/09/14 08:40:03;;;;;;;5.18;2.75;;;22.70;99.90;;;;;;4178829;28;20215;-72
2022/09/14 08:42:11;;;;;;;2.67;2.42;;;22.70;99.90;;;;;;4173737;28;20232;-73
2022/09/14 08:44:17;;;;;;;3.95;2.50;;;22.70;99.90;;;;;;4173205;28;20219;-73
2022/09/14 08:46:28;;;;;;;6.68;2.47;;;22.80;99.90;;;;;;4172288;28;20220;-72
2022/09/14 08:48:35;;;;;;;7.40;2.83;;;22.80;99.90;;;;;;4173499;28;20660;-73
2022/09/14 08:50:38;;;;;;;2.92;2.10;;;22.80;99.90;;;;;;4174460;28;20265;-73
2022/09/14 08:52:43;;;;;;;7.90;2.67;;;22.80;99.90;;;;;;4174189;28;20293;-74
2022/09/14 08:54:47;;;;;;;7.38;2.35;;;22.80;99.90;;;;;;4172151;28;20265;-73
2022/09/14 08:56:58;;;;;;;7.78;2.60;;;22.90;99.90;;;;;;4171860;28;20215;-72
2022/09/14 08:59:22;;;;;;;5.75;2.38;;;22.90;99.90;;;;;;4168030;28;20212;-74
2022/09/14 09:01:35;;;;;;;6.70;2.33;;;22.90;99.90;;;;;;4170622;28;20487;-77
2022/09/14 09:03:55;;;;;;;11.73;3.00;;;22.90;99.90;;;;;;4171532;28;20223;-77
2022/09/14 09:06:06;;;;;;;7.93;2.67;;;22.90;99.90;;;;;;4175496;28;20257;-76
2022/09/14 09:08:17;;;;;;;7.15;2.08;;;23.00;99.90;;;;;;4175883;28;20257;-75
2022/09/14 09:10:20;;;;;;;3.10;2.08;;;23.00;99.90;;;;;;4176012;28;20225;-76
2022/09/14 09:12:27;;;;;;;4.97;2.28;;;23.00;99.90;;;;;;4173730;28;20234;-76
2022/09/14 09:14:33;;;;;;;11.02;2.40;;;23.00;99.90;;;;;;4178628;28;20216;-75
2022/09/14 09:16:38;;;;;;;5.60;2.17;;;23.00;99.90;;;;;;4177886;28;20257;-74
2022/09/14 09:18:45;;;;;;;5.45;2.28;;;23.00;99.90;;;;;;4174229;28;20597;-74
2022/09/14 09:20:51;;;;;;;3.78;2.08;;;23.00;99.90;;;;;;4176235;28;20227;-76
2022/09/14 09:23:02;;;;;;;6.20;2.20;;;23.00;99.90;;;;;;4174916;28;20263;-77
2022/09/14 09:25:13;;;;;;;8.10;2.20;;;23.10;99.90;;;;;;4180708;28;20249;-76
2022/09/14 09:27:17;;;;;;;4.82;2.17;;;23.00;99.90;;;;;;4174017;28;20215;-76
2022/09/14 09:29:19;;;;;;;4.75;2.30;;;23.10;99.90;;;;;;4172349;28;20215;-76
2022/09/14 09:31:34;;;;;;;11.55;2.42;;;23.00;99.90;;;;;;4174906;28;20270;-76
2022/09/14 09:33:37;;;;;;;3.97;2.40;;;23.10;99.90;;;;;;4182441;28;20220;-76
2022/09/14 09:35:39;;;;;;;6.60;4.32;;;23.00;99.90;;;;;;4173538;28;20698;-77
2022/09/14 09:37:41;;;;;;;4.80;3.70;;;22.90;99.90;;;;;;4181874;28;20264;-77
2022/09/14 09:39:44;;;;;;;4.25;3.20;;;22.90;99.90;;;;;;4168773;28;20208;-77
2022/09/14 09:41:51;;;;;;;3.95;2.95;;;22.90;99.90;;;;;;4168777;28;20753;-75
2022/09/14 09:44:02;;;;;;;7.53;2.83;;;22.90;99.90;;;;;;4175649;28;20648;-76
2022/09/14 09:46:07;;;;;;;3.15;2.50;;;22.90;99.90;;;;;;4172318;28;20276;-76
2022/09/14 09:48:12;;;;;;;3.20;2.30;;;23.00;99.90;;;;;;4177595;28;20272;-75
2022/09/14 09:50:19;;;;;;;3.83;2.03;;;23.00;99.90;;;;;;4169840;28;20228;-76
2022/09/14 09:52:21;;;;;;;5.15;2.75;;;23.00;99.90;;;;;;4172029;28;20216;-77
2022/09/14 09:54:27;;;;;;;11.00;2.50;;;23.00;99.90;;;;;;4173234;28;20241;-76
2022/09/14 09:56:33;;;;;;;3.70;2.00;;;23.00;99.90;;;;;;4172392;28;20212;-76
2022/09/14 09:58:38;;;;;;;3.72;2.25;;;23.00;99.90;;;;;;4168990;28;20734;-75
2022/09/14 10:00:41;;;;;;;5.10;2.17;;;23.00;99.90;;;;;;4170007;28;20357;-75
2022/09/14 10:02:43;;;;;;;6.22;2.40;;;23.00;99.90;;;;;;4169556;28;20769;-77
2022/09/14 10:05:01;;;;;;;3.05;2.20;;;23.00;99.90;;;;;;4172541;28;20626;-76
2022/09/14 10:07:04;;;;;;;5.18;2.22;;;23.00;99.90;;;;;;4168579;28;20350;-75
2022/09/14 10:09:12;;;;;;;4.57;2.10;;;23.00;99.90;;;;;;4169596;28;20212;-75
2022/09/14 10:11:35;;;;;;;2.58;2.38;;;23.00;99.90;;;;;;4177918;28;20802;-75
2022/09/14 10:13:39;;;;;;;4.30;2.85;;;23.00;99.90;;;;;;4170885;28;20706;-75
2022/09/14 10:15:47;;;;;;;3.33;2.33;;;22.90;99.90;;;;;;4174267;28;20215;-74
2022/09/14 10:17:55;;;;;;;3.78;2.42;;;22.80;99.90;;;;;;4178076;28;20604;-74
2022/09/14 10:19:57;;;;;;;3.90;2.53;;;22.90;99.90;;;;;;4177199;28;20609;-74
2022/09/14 10:22:27;;;;;;;4.32;2.30;;;22.90;99.90;;;;;;4170636;28;20695;-76
2022/09/14 10:24:30;;;;;;;5.82;2.80;;;22.90;99.90;;;;;;4158588;28;20215;-73
2022/09/14 10:26:37;;;;;;;7.72;5.32;;;22.90;99.90;;;;;;4172600;28;20219;-75
2022/09/14 10:28:42;;;;;;;8.13;6.85;;;22.80;99.90;;;;;;4176546;28;20286;-74
2022/09/14 10:30:50;;;;;;;7.35;6.63;;;22.70;99.90;;;;;;4174321;28;20281;-73
2022/09/14 10:32:56;;;;;;;7.85;7.15;;;22.60;99.90;;;;;;4174945;28;20211;-73
2022/09/14 10:34:59;;;;;;;8.80;7.55;;;22.60;99.90;;;;;;4176902;28;20257;-73
2022/09/14 10:37:13;;;;;;;10.73;7.78;;;22.50;99.90;;;;;;4177577;28;20215;-73
2022/09/14 10:39:23;;;;;;;10.48;7.10;;;22.60;99.90;;;;;;4168842;28;20220;-72
2022/09/14 10:41:30;;;;;;;8.90;7.72;;;22.50;99.90;;;;;;4165083;28;20265;-72
2022/09/14 10:43:44;;;;;;;7.60;6.88;;;22.60;99.90;;;;;;4169549;28;20245;-73
2022/09/14 10:45:51;;;;;;;7.57;6.88;;;22.50;99.90;;;;;;4171566;28;20266;-74
2022/09/14 10:48:30;;;;;;;8.35;7.55;;;22.50;99.90;;;;;;4177333;28;20257;-75
2022/09/14 10:50:43;;;;;;;8.13;7.32;;;22.50;99.90;;;;;;4167162;28;20231;-74